Latest Weather Observations for Nullarbor

IDS60801

Issued at 7:01 pm CST Thursday 17 August 2017 (issued every 30 minutes, with the page automatically refreshed every 10 minutes)

About weather observations | Map of weather stations | Latest weather observations for SA | Other Formats
Station Details ID: 018106 Name: NULLARBOR Lat: -31.45 Lon: 130.90 Height: 64.0 m
Data from the previous 72 hours. | See also: Recent months at Nullarbor
Date/Time
CST
Temp
°C
App
Temp
°C
Dew
Point
°C
Rel
Hum
%
Delta-T
°C
Wind Press
QNH
hPa
Press
MSL
hPa
Rain since
9am
mm
Dir  Spd
km/h
Gust
km/h
Spd
kts
Gust
kts
17/07:00pm 12.0 8.5 7.1 72 2.4 WSW 15 19 8 10 1021.7 1021.8 0.0
17/06:30pm 12.8 9.0 7.5 70 2.6 WSW 17 22 9 12 1021.4 1021.5 0.0
17/06:00pm 13.9 8.5 7.9 67 3.0 WSW 26 32 14 17 1020.9 1021.0 0.0
17/05:30pm 14.7 9.7 8.2 65 3.3 WSW 24 33 13 18 1020.5 1020.6 0.0
17/05:00pm 15.0 8.3 7.5 61 3.7 WSW 32 46 17 25 1020.2 1020.3 0.0
17/04:30pm 15.3 8.5 6.8 57 4.2 SW 32 46 17 25 1019.8 1019.8 0.0
17/04:00pm 15.9 9.4 6.6 54 4.6 WSW 30 46 16 25 1019.7 1019.7 0.0
17/03:30pm 16.1 8.5 6.0 51 4.9 WSW 35 50 19 27 1019.5 1019.5 0.0
17/03:00pm 15.7 8.4 7.0 56 4.3 WSW 35 44 19 24 1019.4 1019.4 0.0
17/02:30pm 16.1 9.2 6.5 53 4.7 WSW 32 44 17 24 1019.0 1019.0 0.0
17/02:00pm 15.8 8.3 6.5 54 4.5 WSW 35 46 19 25 1018.9 1018.9 0.0
17/01:31pm 16.8 10.1 5.7 48 5.4 WSW 30 48 16 26 1018.5 1018.5 0.0
17/01:30pm 16.6 10.2 5.3 47 5.4 WSW 28 39 15 21 1018.6 1018.6 0.0
17/01:23pm 17.1 10.8 5.7 47 5.5 W 28 46 15 25 1018.6 1018.6 0.0
17/01:00pm 16.1 9.0 5.7 50 5.0 WSW 32 44 17 24 1018.8 1018.8 0.0
17/12:30pm 16.1 9.0 5.7 50 5.0 W 32 44 17 24 1018.8 1018.8 0.0
17/12:00pm 16.0 9.4 5.9 51 4.9 WSW 30 41 16 22 1018.8 1018.8 0.0
17/11:30am 15.5 8.5 6.2 54 4.5 WSW 32 41 17 22 1018.8 1018.8 0.0
17/11:00am 14.9 8.2 5.7 54 4.4 W 30 41 16 22 1018.6 1018.6 0.0
17/10:30am 14.2 7.9 5.8 57 4.0 W 28 37 15 20 1018.4 1018.4 0.0
17/10:00am 12.7 5.9 4.9 59 3.6 WNW 30 39 16 21 1018.3 1018.3 0.0
17/09:30am 12.2 6.2 5.1 62 3.3 WNW 26 35 14 19 1018.1 1018.1 0.0
17/09:00am 10.7 5.0 4.8 67 2.7 WNW 24 33 13 18 1017.7 1017.7 0.0
17/08:30am 9.1 3.6 6.0 81 1.4 WNW 24 32 13 17 1017.3 1017.3 0.0
17/08:00am 7.1 2.4 6.2 94 0.4 NW 20 28 11 15 1016.8 1016.8 0.0
17/07:30am 6.3 2.0 5.4 94 0.4 NW 17 20 9 11 1016.4 1016.4 0.0
17/07:00am 6.4 1.8 5.4 93 0.4 NW 19 24 10 13 1016.0 1016.0 0.0
17/06:30am 6.3 2.0 5.1 92 0.5 NW 17 22 9 12 1015.6 1015.6 0.0
17/06:00am 6.4 2.0 4.9 90 0.7 NW 17 20 9 11 1015.0 1015.0 0.0
17/05:30am 6.9 2.5 4.9 87 0.9 WNW 17 20 9 11 1014.8 1014.8 0.0
17/05:00am 7.3 2.6 5.1 86 1.0 WNW 19 22 10 12 1014.4 1014.4 0.0
17/04:30am 7.6 2.9 5.2 85 1.1 WNW 19 24 10 13 1014.1 1014.1 0.0
17/04:00am 7.5 3.1 5.0 84 1.1 WNW 17 20 9 11 1013.9 1013.9 0.0
17/03:30am 7.5 3.1 4.8 83 1.2 NW 17 20 9 11 1013.8 1013.8 0.0
17/03:00am 8.3 3.9 4.9 79 1.5 WNW 17 26 9 14 1013.7 1013.7 0.0
17/02:30am 9.0 4.2 5.6 79 1.5 WNW 20 26 11 14 1013.7 1013.7 0.0
17/02:00am 8.2 4.2 5.1 81 1.4 NW 15 20 8 11 1013.4 1013.4 0.0
17/01:30am 8.5 4.5 5.1 79 1.5 NW 15 17 8 9 1013.5 1013.5 0.0
17/01:00am 9.1 5.9 4.9 75 1.9 WNW 11 13 6 7 1013.7 1013.7 0.0
17/12:30am 10.2 6.3 5.2 71 2.3 W 15 19 8 10 1013.7 1013.7 0.0
17/12:00am 11.6 6.1 5.7 67 2.7 NW 24 30 13 16 1013.7 1013.7 0.0
 
Date/Time
CST
Temp
°C
App
Temp
°C
Dew
Point
°C
Rel
Hum
%
Delta-T
°C
Wind Press
QNH
hPa
Press
MSL
hPa
Rain since
9am
mm
Dir  Spd
km/h
Gust
km/h
Spd
kts
Gust
kts
16/11:30pm 10.8 6.6 5.6 70 2.4 NW 17 24 9 13 1013.8 1013.8 0.0
16/11:00pm 11.1 6.5 5.4 68 2.6 NW 19 24 10 13 1014.0 1014.0 0.0
16/10:30pm 11.4 6.6 5.5 67 2.7 NW 20 28 11 15 1014.1 1014.1 0.0
16/10:00pm 11.0 6.3 5.1 67 2.7 NW 19 24 10 13 1014.3 1014.3 0.0
16/09:30pm 10.8 6.1 5.1 68 2.6 NW 19 24 10 13 1014.2 1014.2 0.0
16/09:00pm 10.9 6.5 4.8 66 2.8 NW 17 22 9 12 1014.0 1014.0 0.0
16/08:30pm 11.1 7.0 4.6 64 2.9 NW 15 19 8 10 1013.7 1013.7 0.0
16/08:00pm 12.0 7.9 4.2 59 3.5 NW 15 17 8 9 1013.4 1013.4 0.0
16/07:30pm 13.8 8.8 4.4 53 4.3 NW 20 24 11 13 1012.9 1012.9 0.0
16/07:00pm 15.0 9.9 4.1 48 5.0 WNW 20 26 11 14 1012.6 1012.6 0.0
16/06:30pm 16.1 9.7 3.2 42 5.9 WNW 26 35 14 19 1012.2 1012.2 0.0
16/06:00pm 17.3 9.5 1.7 35 7.0 WNW 32 43 17 23 1012.0 1012.0 0.0
16/05:30pm 18.2 9.8 1.7 33 7.5 WNW 35 50 19 27 1011.6 1011.6 0.0
16/05:00pm 19.0 11.1 2.0 32 7.8 WNW 33 48 18 26 1011.4 1011.4 0.0
16/04:48pm 19.2 10.8 1.7 31 8.0 WNW 35 56 19 30 1011.3 1011.3 0.0
16/04:30pm 19.2 11.3 2.1 32 7.9 WNW 33 46 18 25 1011.2 1011.2 0.0
16/04:00pm 19.4 10.7 2.3 32 7.9 WNW 37 52 20 28 1011.3 1011.3 0.0
16/03:42pm 19.2 11.3 2.1 32 7.8 WNW 33 52 18 28 1011.2 1011.2 0.0
16/03:30pm 19.5 10.6 3.2 34 7.7 NW 39 54 21 29 1011.2 1011.2 0.0
16/03:00pm 19.3 9.9 2.6 33 7.8 WNW 41 54 22 29 1011.3 1011.3 0.0
16/02:30pm 19.1 10.6 3.3 35 7.4 WNW 37 52 20 28 1011.6 1011.6 0.0
16/02:00pm 19.0 10.1 3.2 35 7.4 WNW 39 54 21 29 1012.0 1012.0 0.0
16/01:30pm 18.8 10.0 3.4 36 7.2 NW 39 54 21 29 1012.3 1012.3 0.0
16/01:00pm 18.0 8.7 2.7 36 7.0 WNW 41 54 22 29 1012.6 1012.6 0.0
16/12:30pm 17.3 8.2 2.1 36 6.9 WNW 39 54 21 29 1013.1 1013.1 0.0
16/12:00pm 17.2 8.6 2.4 37 6.7 WNW 37 54 20 29 1013.5 1013.5 0.0
16/11:30am 16.6 7.8 3.7 42 6.0 WNW 39 52 21 28 1013.8 1013.8 0.0
16/11:20am 16.5 8.7 2.9 40 6.2 WNW 33 54 18 29 1013.9 1013.9 0.0
16/11:00am 16.1 8.8 4.5 46 5.5 WNW 32 43 17 23 1014.2 1014.2 0.0
16/10:30am 15.6 9.7 5.8 52 4.7 NW 26 37 14 20 1014.3 1014.3 0.0
16/10:00am 13.8 9.1 7.8 67 3.0 NW 22 32 12 17 1014.3 1014.3 0.0
16/09:30am 12.2 8.1 8.5 78 1.8 NW 20 30 11 16 1014.1 1014.1 0.0
16/09:00am 9.9 5.9 8.2 89 0.8 NW 19 28 10 15 1014.1 1014.1 2.8
16/08:30am 8.1 4.8 8.0 99 0.0 NW 15 20 8 11 1014.0 1014.0 2.8
16/08:00am 5.6 2.1 5.5 99 0.0 NW 13 17 7 9 1013.8 1013.8 2.8
16/07:30am 5.1 1.5 5.0 99 0.0 NW 13 19 7 10 1013.6 1013.6 2.8
16/07:00am 5.3 1.4 5.2 99 0.0 NW 15 19 8 10 1013.4 1013.4 2.8
16/06:30am 5.6 1.7 5.5 99 0.0 NW 15 20 8 11 1013.3 1013.3 2.8
16/06:00am 5.7 1.9 5.6 99 0.0 NW 15 17 8 9 1013.1 1013.1 2.6
16/05:30am 5.9 2.1 5.8 99 0.0 NW 15 19 8 10 1013.0 1013.0 2.6
16/05:00am 5.6 2.1 5.5 99 0.0 NW 13 17 7 9 1012.9 1012.9 2.6
16/04:30am 5.4 1.9 5.3 99 0.0 NW 13 17 7 9 1012.7 1012.7 2.6
16/04:00am 5.6 2.1 5.5 99 0.0 NW 13 15 7 8 1012.7 1012.7 2.6
16/03:30am 5.9 2.5 5.8 99 0.0 NW 13 17 7 9 1012.8 1012.8 2.6
16/03:00am 6.0 2.6 5.9 99 0.0 NW 13 17 7 9 1012.9 1012.9 2.6
16/02:30am 6.3 3.0 6.2 99 0.0 NW 13 17 7 9 1013.0 1013.0 2.6
16/02:00am 6.7 3.8 6.6 99 0.0 NW 11 15 6 8 1013.0 1013.0 2.6
16/01:30am 7.1 3.9 7.0 99 0.0 NW 13 15 7 8 1013.0 1013.0 2.6
16/01:00am 7.6 4.5 7.2 97 0.2 NW 13 15 7 8 1013.1 1013.1 2.6
16/12:30am 8.7 5.4 8.1 96 0.3 WNW 15 17 8 9 1013.1 1013.1 2.6
16/12:00am 9.3 6.2 8.7 96 0.3 WNW 15 19 8 10 1013.1 1013.1 2.6
 
Date/Time
CST
Temp
°C
App
Temp
°C
Dew
Point
°C
Rel
Hum
%
Delta-T
°C
Wind Press
QNH
hPa
Press
MSL
hPa
Rain since
9am
mm
Dir  Spd
km/h
Gust
km/h
Spd
kts
Gust
kts
15/11:30pm 9.7 5.9 9.2 97 0.2 WNW 19 20 10 11 1013.0 1013.0 2.6
15/11:00pm 9.5 6.1 9.2 98 0.1 WNW 17 20 9 11 1013.0 1013.0 2.6
15/10:30pm 9.4 6.4 9.1 98 0.1 NW 15 17 8 9 1012.9 1012.9 2.6
15/10:00pm 9.6 6.5 9.0 96 0.3 NW 15 17 8 9 1012.8 1012.8 2.6
15/09:30pm 10.3 7.7 9.4 94 0.5 NW 13 17 7 9 1012.6 1012.6 2.6
15/09:00pm 11.0 8.5 9.6 91 0.7 NW 13 15 7 8 1012.5 1012.5 2.6
15/08:30pm 12.0 9.7 10.4 90 0.8 WNW 13 15 7 8 1012.3 1012.3 2.6
15/08:00pm 12.9 10.8 11.3 90 0.8 W 13 15 7 8 1011.9 1011.9 2.6
15/07:30pm 14.1 11.3 12.7 91 0.8 W 19 24 10 13 1011.1 1011.1 2.6
15/07:00pm 14.3 11.4 12.9 91 0.8 NW 20 28 11 15 1010.1 1010.1 2.6
15/06:30pm 14.5 12.1 12.7 89 1.0 NW 17 24 9 13 1009.9 1009.9 2.6
15/06:00pm 15.2 11.0 12.5 84 1.5 NW 26 35 14 19 1009.5 1009.5 2.6
15/05:30pm 15.4 10.9 12.5 83 1.6 NW 28 39 15 21 1009.1 1009.1 2.6
15/05:00pm 15.6 11.6 13.1 85 1.4 NW 26 35 14 19 1008.9 1008.9 2.6
15/04:30pm 15.0 11.4 13.2 89 1.0 NW 24 32 13 17 1008.6 1008.6 2.6
15/04:00pm 14.8 11.8 13.7 93 0.6 NW 22 30 12 16 1008.4 1008.4 2.6
15/03:30pm 14.5 11.4 13.4 93 0.6 NW 22 30 12 16 1008.5 1008.5 2.6
15/03:00pm 14.5 10.9 12.9 90 0.9 NW 24 33 13 18 1008.6 1008.6 2.6
15/02:30pm 14.9 9.7 12.9 88 1.1 WNW 32 41 17 22 1009.0 1009.0 2.4
15/02:00pm 15.7 12.2 15.5 99 0.1 NW 28 39 15 21 1008.9 1008.9 2.0
15/01:30pm 15.4 12.5 15.2 99 0.1 WNW 24 35 13 19 1009.2 1009.2 1.8
15/01:00pm 15.4 12.5 15.2 99 0.1 NW 24 30 13 16 1009.8 1009.8 1.6
15/12:30pm 15.3 11.6 15.1 99 0.1 NW 28 33 15 18 1009.8 1009.8 1.6
15/12:00pm 15.9 13.2 15.7 99 0.1 NW 24 33 13 18 1010.1 1010.1 1.4
15/11:30am 15.7 12.6 15.7 100 0.0 NW 26 37 14 20 1010.5 1010.5 1.0
15/11:00am 15.9 12.9 15.9 100 0.0 NW 26 37 14 20 1010.7 1010.7 1.0
15/10:30am 16.0 12.7 16.0 100 0.0 NW 28 37 15 20 1010.5 1010.5 0.4
15/10:00am 15.7 13.0 15.7 100 0.0 NW 24 33 13 18 1010.3 1010.3 0.2
15/09:30am 15.3 12.9 15.3 100 0.0 NW 22 33 12 18 1010.3 1010.3 0.0
15/09:00am 15.0 12.4 14.8 99 0.1 NW 22 30 12 16 1010.3 1010.3 1.6
15/08:30am 14.8 13.1 14.6 99 0.1 NW 17 24 9 13 1010.1 1010.1 1.6
15/08:00am 14.8 12.9 14.3 97 0.3 NW 17 20 9 11 1010.2 1010.2 1.2
15/07:30am 15.2 13.5 13.6 90 0.9 NW 15 19 8 10 1010.2 1010.2 0.4
15/07:00am 15.5 12.9 13.3 87 1.2 NW 19 24 10 13 1010.0 1010.0 0.2
15/06:30am 15.8 13.6 13.3 85 1.4 WNW 17 20 9 11 1010.0 1010.0 0.0
15/06:00am 16.2 13.9 12.9 81 1.8 WNW 17 22 9 12 1009.8 1009.8 0.0
15/05:30am 16.8 14.7 12.5 76 2.4 WNW 15 19 8 10 1009.8 1009.8 0.0
15/05:00am 17.0 14.6 12.5 75 2.5 WNW 17 22 9 12 1009.7 1009.7 0.0
15/04:30am 17.1 15.1 12.6 75 2.5 NW 15 20 8 11 1009.4 1009.4 0.0
15/04:00am 17.1 15.4 12.6 75 2.5 NW 13 17 7 9 1009.4 1009.4 0.0
15/03:30am 17.7 15.6 12.4 71 2.9 NW 15 20 8 11 1009.6 1009.6 0.0
15/03:00am 17.9 15.5 12.8 72 2.9 NW 17 22 9 12 1010.4 1010.4 0.0
15/02:30am 18.0 15.8 13.3 74 2.7 NW 17 20 9 11 1010.8 1010.8 0.0
15/02:00am 18.0 14.5 13.3 74 2.7 WNW 24 35 13 19 1011.1 1011.1 0.0
15/01:30am 18.5 14.5 13.1 71 3.1 WNW 26 35 14 19 1011.4 1011.4 0.0
15/01:00am 18.5 14.5 13.1 71 3.1 WNW 26 37 14 20 1011.5 1011.5 0.0
15/12:30am 19.2 14.4 12.9 67 3.6 WNW 30 43 16 23 1012.1 1012.1 0.0
15/12:00am 19.7 15.3 12.9 65 3.9 WNW 28 46 15 25 1011.8 1011.8 0.0
 
Date/Time
CST
Temp
°C
App
Temp
°C
Dew
Point
°C
Rel
Hum
%
Delta-T
°C
Wind Press
QNH
hPa
Press
MSL
hPa
Rain since
9am
mm
Dir  Spd
km/h
Gust
km/h
Spd
kts
Gust
kts
14/11:42pm 19.9 15.5 12.9 64 4.0 WNW 28 43 15 23 1011.9 1011.9 0.0
14/11:30pm 19.5 17.8 13.7 69 3.3 WNW 15 20 8 11 1012.0 1012.0 0.0
14/11:00pm 19.6 16.6 12.6 64 3.9 W 20 35 11 19 1012.5 1012.5 0.0
14/10:30pm 17.5 17.9 11.1 66 3.5 CALM 0 6 0 3 1012.5 1012.5 0.0
14/10:00pm 17.2 16.2 11.0 67 3.3 S 7 11 4 6 1012.2 1012.2 0.0
14/09:30pm 17.5 15.4 9.9 61 4.0 S 11 13 6 7 1011.7 1011.7 0.0
14/09:00pm 18.0 16.5 9.1 56 4.7 SE 7 9 4 5 1011.2 1011.2 0.0
14/08:30pm 18.5 16.9 8.7 53 5.1 ESE 7 9 4 5 1010.7 1010.7 0.0
14/08:00pm 18.8 16.6 7.9 49 5.6 SE 9 11 5 6 1010.4 1010.4 0.0
14/07:30pm 19.3 16.7 7.7 47 6.0 SSE 11 13 6 7 1010.3 1010.3 0.0

Other Formats:

Comma delimited format used in spreadsheet applications
http://www.bom.gov.au/fwo/IDS60801/IDS60801.94651.axf

JavaScript Object Notation format (JSON) in row-major order
http://www.bom.gov.au/fwo/IDS60801/IDS60801.94651.json